Time;durP1;ratioP1;P1;durP2;ratioP2;P2;SDS_P1;SDS_P2;PMS_P1;PMS_P2;Temp;Humidity;BMP_temperature;BMP_pressure;BME280_temperature;BME280_humidity;BME280_pressure;Samples;Min_cycle;Max_cycle;Signal;HPM_P1;HPM_P2
2021/01/14 00:00:37;;;;;;;5.40;4.95;;;1.40;99.90;;;;;;5055246;28;20225;-73
2021/01/14 00:03:05;;;;;;;5.07;4.68;;;1.30;99.90;;;;;;5071176;28;20225;-73
2021/01/14 00:05:32;;;;;;;5.28;4.88;;;1.30;99.90;;;;;;5065179;28;20249;-74
2021/01/14 00:07:58;;;;;;;5.43;4.97;;;1.30;99.90;;;;;;5058960;28;20253;-73
2021/01/14 00:10:25;;;;;;;5.30;4.82;;;1.30;99.90;;;;;;5057871;28;20227;-73
2021/01/14 00:12:51;;;;;;;5.47;5.07;;;1.30;99.90;;;;;;5055648;28;20222;-73
2021/01/14 00:15:19;;;;;;;5.80;5.30;;;1.30;99.90;;;;;;5053659;28;20225;-73
2021/01/14 00:17:46;;;;;;;5.70;5.15;;;1.30;99.90;;;;;;5063409;28;20218;-73
2021/01/14 00:20:14;;;;;;;6.32;5.70;;;1.20;99.90;;;;;;5065862;28;20218;-74
2021/01/14 00:22:40;;;;;;;6.43;5.93;;;1.10;99.90;;;;;;5064166;28;20229;-73
2021/01/14 00:25:09;;;;;;;6.28;5.78;;;1.10;99.90;;;;;;5080348;28;20229;-73
2021/01/14 00:27:36;;;;;;;6.15;5.65;;;1.00;99.90;;;;;;5068054;28;20227;-73
2021/01/14 00:30:05;;;;;;;6.65;6.10;;;1.00;99.90;;;;;;5061800;28;20222;-73
2021/01/14 00:32:33;;;;;;;6.60;6.10;;;1.10;99.90;;;;;;5063412;28;20232;-73
2021/01/14 00:34:59;;;;;;;7.05;6.38;;;1.10;99.90;;;;;;5063877;28;20605;-73
2021/01/14 00:40:11;;;;;;;5.65;5.25;;;1.20;99.90;;;;;;5066795;28;20244;-73
2021/01/14 00:42:37;;;;;;;5.15;4.85;;;1.20;99.90;;;;;;5065051;28;20230;-73
2021/01/14 00:45:05;;;;;;;5.00;4.70;;;1.20;99.90;;;;;;5064459;28;20218;-73
2021/01/14 00:47:35;;;;;;;5.82;5.32;;;1.20;99.90;;;;;;5062947;28;20229;-74
2021/01/14 00:50:01;;;;;;;5.43;5.03;;;1.20;99.90;;;;;;5064986;28;20226;-73
2021/01/14 00:52:28;;;;;;;4.75;4.45;;;1.10;99.90;;;;;;5064823;28;20236;-73
2021/01/14 00:54:54;;;;;;;5.10;4.65;;;1.10;99.90;;;;;;5070984;28;20225;-73
2021/01/14 00:57:21;;;;;;;5.80;5.30;;;1.10;99.90;;;;;;5068745;28;20626;-73
2021/01/14 00:59:48;;;;;;;5.53;5.05;;;1.10;99.90;;;;;;5060973;28;20233;-73
2021/01/14 01:02:14;;;;;;;5.25;4.88;;;1.10;99.90;;;;;;5062728;28;20226;-73
2021/01/14 01:04:42;;;;;;;5.50;5.15;;;1.10;99.90;;;;;;5064303;28;20218;-74
2021/01/14 01:07:08;;;;;;;4.78;4.47;;;1.20;99.90;;;;;;5061207;28;20230;-74
2021/01/14 01:09:35;;;;;;;4.45;4.15;;;1.20;99.90;;;;;;5061460;28;20221;-73
2021/01/14 01:12:01;;;;;;;4.63;4.30;;;1.20;99.90;;;;;;5062507;28;20291;-73
2021/01/14 01:14:28;;;;;;;4.60;4.30;;;1.20;99.90;;;;;;5053637;28;20225;-73
2021/01/14 01:16:55;;;;;;;4.38;4.07;;;1.20;99.90;;;;;;5058668;28;20248;-73
2021/01/14 01:19:22;;;;;;;4.80;4.53;;;1.30;99.90;;;;;;5054311;28;20230;-73
2021/01/14 01:21:49;;;;;;;4.05;3.85;;;1.30;99.90;;;;;;5065702;28;20240;-73
2021/01/14 01:24:16;;;;;;;4.60;4.30;;;1.30;99.90;;;;;;5066291;28;20225;-73
2021/01/14 01:26:42;;;;;;;4.85;4.55;;;1.30;99.90;;;;;;5060649;28;20226;-73
2021/01/14 01:29:09;;;;;;;4.50;4.20;;;1.30;99.90;;;;;;5064566;28;20221;-74
2021/01/14 01:31:39;;;;;;;4.88;4.57;;;1.30;99.90;;;;;;5059693;28;20313;-73
2021/01/14 01:34:06;;;;;;;3.70;3.45;;;1.30;99.90;;;;;;5061306;28;20388;-73
2021/01/14 01:36:32;;;;;;;4.18;3.88;;;1.30;99.90;;;;;;5045187;28;20222;-73
2021/01/14 01:39:00;;;;;;;4.25;3.95;;;1.30;99.90;;;;;;5042882;28;20289;-73
2021/01/14 01:41:26;;;;;;;4.15;3.95;;;1.30;99.90;;;;;;5056808;28;20271;-73
2021/01/14 01:43:53;;;;;;;4.18;3.97;;;1.30;99.90;;;;;;5053194;28;20716;-72
2021/01/14 01:46:25;;;;;;;3.92;3.70;;;1.30;99.90;;;;;;5062471;28;20832;-73
2021/01/14 01:48:53;;;;;;;4.07;3.88;;;1.30;99.90;;;;;;5071317;28;20699;-73
2021/01/14 01:51:20;;;;;;;3.85;3.55;;;1.30;99.90;;;;;;5054255;28;20732;-73
2021/01/14 01:53:47;;;;;;;4.30;4.10;;;1.30;99.90;;;;;;5049009;28;20635;-73
2021/01/14 01:56:16;;;;;;;3.88;3.67;;;1.30;99.90;;;;;;5063871;28;20221;-72
2021/01/14 01:58:43;;;;;;;4.00;3.80;;;1.20;99.90;;;;;;5057315;28;20590;-73
2021/01/14 02:01:09;;;;;;;4.28;4.05;;;1.20;99.90;;;;;;5043419;28;20231;-73
2021/01/14 02:03:36;;;;;;;4.35;3.95;;;1.20;99.90;;;;;;5041041;28;20234;-73
2021/01/14 02:06:03;;;;;;;4.00;3.70;;;1.20;99.90;;;;;;5042807;28;20223;-73
2021/01/14 02:08:39;;;;;;;3.53;3.33;;;1.20;99.90;;;;;;5041732;28;20218;-73
2021/01/14 02:11:11;;;;;;;3.85;3.65;;;1.20;99.90;;;;;;5049750;28;20317;-73
2021/01/14 02:13:48;;;;;;;4.30;4.10;;;1.10;99.90;;;;;;5053030;28;20229;-72
2021/01/14 02:16:15;;;;;;;3.60;3.40;;;1.10;99.90;;;;;;5062851;28;20213;-72
2021/01/14 02:18:42;;;;;;;4.10;3.90;;;1.10;99.90;;;;;;5057331;28;20230;-72
2021/01/14 02:21:13;;;;;;;3.55;3.35;;;1.20;99.90;;;;;;5047337;28;20264;-73
2021/01/14 02:23:51;;;;;;;3.83;3.60;;;1.20;99.90;;;;;;5064283;28;20304;-73
2021/01/14 02:26:21;;;;;;;4.00;3.80;;;1.20;99.90;;;;;;5042957;28;20248;-73
2021/01/14 02:28:48;;;;;;;3.10;2.90;;;1.20;99.90;;;;;;5042497;28;20276;-72
2021/01/14 02:31:16;;;;;;;3.50;3.30;;;1.10;99.90;;;;;;5044286;28;20226;-72
2021/01/14 02:33:43;;;;;;;3.67;3.47;;;1.10;99.90;;;;;;5039790;28;20226;-72
2021/01/14 02:36:10;;;;;;;3.67;3.47;;;1.00;99.90;;;;;;5040708;28;20229;-71
2021/01/14 02:38:37;;;;;;;3.78;3.58;;;1.00;99.90;;;;;;5038452;28;20239;-72
2021/01/14 02:41:04;;;;;;;3.65;3.45;;;1.10;99.90;;;;;;5052407;28;20211;-72
2021/01/14 02:43:31;;;;;;;3.20;3.00;;;1.10;99.90;;;;;;5046171;28;20285;-73
2021/01/14 02:45:58;;;;;;;3.45;3.28;;;1.10;99.90;;;;;;5042719;28;20241;-72
2021/01/14 02:48:30;;;;;;;4.10;3.90;;;1.10;99.90;;;;;;5040770;28;20650;-72
2021/01/14 02:51:01;;;;;;;3.67;3.47;;;1.10;99.90;;;;;;5041358;28;20654;-73
2021/01/14 02:53:29;;;;;;;3.88;3.67;;;1.10;99.90;;;;;;5045289;28;20246;-72
2021/01/14 02:55:56;;;;;;;3.70;3.50;;;1.10;99.90;;;;;;5041249;28;20219;-72
2021/01/14 02:58:23;;;;;;;3.80;3.60;;;1.20;99.90;;;;;;5042817;28;20233;-72
2021/01/14 03:00:50;;;;;;;3.50;3.20;;;1.20;99.90;;;;;;5038077;28;20226;-73
2021/01/14 03:03:16;;;;;;;3.85;3.65;;;1.20;99.90;;;;;;5036151;28;20218;-72
2021/01/14 03:05:43;;;;;;;4.18;3.97;;;1.20;99.90;;;;;;5044501;28;20219;-72
2021/01/14 03:08:10;;;;;;;3.63;3.42;;;1.20;99.90;;;;;;5038458;28;20226;-73
2021/01/14 03:10:36;;;;;;;4.25;4.05;;;1.20;99.90;;;;;;5041622;28;20284;-72
2021/01/14 03:13:03;;;;;;;3.97;3.78;;;1.20;99.90;;;;;;5037290;28;20700;-72
2021/01/14 03:15:29;;;;;;;3.58;3.38;;;1.20;99.90;;;;;;5042839;28;20227;-72
2021/01/14 03:17:57;;;;;;;3.60;3.40;;;1.20;99.90;;;;;;5040678;28;20719;-72
2021/01/14 03:20:23;;;;;;;3.15;3.03;;;1.20;99.90;;;;;;5039995;28;20716;-72
2021/01/14 03:22:50;;;;;;;3.53;3.33;;;1.20;99.90;;;;;;5039233;28;20231;-72
2021/01/14 03:25:16;;;;;;;3.65;3.45;;;1.20;99.90;;;;;;5039218;28;20633;-72
2021/01/14 03:27:44;;;;;;;3.08;2.88;;;1.20;99.90;;;;;;5036423;28;20277;-72
2021/01/14 03:30:14;;;;;;;3.42;3.22;;;1.20;99.90;;;;;;5039008;28;20437;-73
2021/01/14 03:32:41;;;;;;;3.65;3.45;;;1.20;99.90;;;;;;5044920;28;20242;-73
2021/01/14 03:35:09;;;;;;;4.07;3.88;;;1.30;99.90;;;;;;5049445;28;20227;-73
2021/01/14 03:37:39;;;;;;;3.80;3.60;;;1.30;99.90;;;;;;5039661;28;21015;-72
2021/01/14 03:40:07;;;;;;;3.03;2.92;;;1.30;99.90;;;;;;5034768;28;20226;-72
2021/01/14 03:42:34;;;;;;;3.60;3.40;;;1.30;99.90;;;;;;5041777;28;20303;-72
2021/01/14 03:45:01;;;;;;;4.00;3.80;;;1.20;99.90;;;;;;5043787;28;20222;-72
2021/01/14 03:47:27;;;;;;;3.20;3.10;;;1.20;99.90;;;;;;5039888;28;20789;-72
2021/01/14 03:49:54;;;;;;;3.53;3.22;;;1.20;99.90;;;;;;5045315;28;20221;-72
2021/01/14 03:52:21;;;;;;;3.65;3.45;;;1.20;99.90;;;;;;5058727;28;20226;-72
2021/01/14 03:54:48;;;;;;;3.45;3.25;;;1.20;99.90;;;;;;5056044;28;20230;-72
2021/01/14 03:57:14;;;;;;;4.05;3.85;;;1.20;99.90;;;;;;5054710;28;20287;-71
2021/01/14 03:59:42;;;;;;;4.22;4.03;;;1.30;99.90;;;;;;5063075;28;20221;-73
2021/01/14 04:02:09;;;;;;;3.55;3.35;;;1.30;99.90;;;;;;5067949;28;20210;-72
2021/01/14 04:04:37;;;;;;;3.55;3.35;;;1.20;99.90;;;;;;5086294;28;20531;-72
2021/01/14 04:07:06;;;;;;;3.97;3.78;;;1.20;99.90;;;;;;5043606;28;20230;-72
2021/01/14 04:09:33;;;;;;;3.45;3.30;;;1.20;99.90;;;;;;5048042;28;20241;-73
2021/01/14 04:12:00;;;;;;;3.05;2.95;;;1.20;99.90;;;;;;5053747;28;20241;-72
2021/01/14 04:14:26;;;;;;;3.65;3.45;;;1.20;99.90;;;;;;5066760;28;20291;-72
2021/01/14 04:16:53;;;;;;;3.40;3.30;;;1.20;99.90;;;;;;5060143;28;20210;-71
2021/01/14 04:19:21;;;;;;;3.53;3.33;;;1.20;99.90;;;;;;5056374;28;20283;-72
2021/01/14 04:21:48;;;;;;;4.28;3.97;;;1.20;99.90;;;;;;5060533;28;20309;-72
2021/01/14 04:24:15;;;;;;;3.65;3.45;;;1.20;99.90;;;;;;5061035;28;20230;-72
2021/01/14 04:26:43;;;;;;;3.20;3.00;;;1.20;99.90;;;;;;5061430;28;20252;-72
2021/01/14 04:29:10;;;;;;;3.50;3.30;;;1.20;99.90;;;;;;5070048;28;20249;-72
2021/01/14 04:31:37;;;;;;;3.55;3.35;;;1.30;99.90;;;;;;5067953;28;20681;-72
2021/01/14 04:34:05;;;;;;;3.22;3.03;;;1.20;99.90;;;;;;5063899;28;20225;-72
2021/01/14 04:36:31;;;;;;;3.58;3.38;;;1.20;99.90;;;;;;5067174;28;20726;-73
2021/01/14 04:38:58;;;;;;;3.70;3.50;;;1.20;99.90;;;;;;5065268;28;20220;-72
2021/01/14 04:41:34;;;;;;;3.47;3.28;;;1.20;99.90;;;;;;5064990;28;20218;-72
2021/01/14 04:44:02;;;;;;;3.83;3.60;;;1.20;99.90;;;;;;5066799;28;20326;-72
2021/01/14 04:46:33;;;;;;;3.85;3.65;;;1.20;99.90;;;;;;5063624;28;20498;-72
2021/01/14 04:49:00;;;;;;;4.88;3.90;;;1.20;99.90;;;;;;5067116;28;20257;-72
2021/01/14 04:51:29;;;;;;;3.10;2.90;;;1.20;99.90;;;;;;5063308;28;20646;-72
2021/01/14 04:54:01;;;;;;;3.45;3.30;;;1.10;99.90;;;;;;5067548;28;20693;-72
2021/01/14 04:56:34;;;;;;;3.60;3.50;;;1.10;99.90;;;;;;5062509;28;20222;-72
2021/01/14 04:59:05;;;;;;;3.38;3.28;;;1.10;99.90;;;;;;5063234;28;20759;-72
2021/01/14 05:01:35;;;;;;;3.83;3.63;;;1.10;99.90;;;;;;5065819;28;20691;-72
2021/01/14 05:04:05;;;;;;;3.80;3.60;;;1.10;99.90;;;;;;5065606;28;20313;-72
2021/01/14 05:06:36;;;;;;;3.25;3.15;;;1.10;99.90;;;;;;5063886;28;20228;-72
2021/01/14 05:09:04;;;;;;;4.05;3.85;;;1.00;99.90;;;;;;5065045;28;20691;-72
2021/01/14 05:11:39;;;;;;;4.03;3.83;;;1.00;99.90;;;;;;5063796;28;20237;-72
2021/01/14 05:14:08;;;;;;;3.97;3.78;;;1.00;99.90;;;;;;5066980;28;20431;-73
2021/01/14 05:16:35;;;;;;;3.97;3.78;;;1.00;99.90;;;;;;5065214;28;20915;-72
2021/01/14 05:19:01;;;;;;;3.80;3.60;;;1.00;99.90;;;;;;5063150;28;20226;-72
2021/01/14 05:21:33;;;;;;;3.75;3.55;;;1.00;99.90;;;;;;5074830;28;20226;-72
2021/01/14 05:24:10;;;;;;;3.85;3.65;;;1.10;99.90;;;;;;5069824;28;20305;-72
2021/01/14 05:26:36;;;;;;;3.63;3.42;;;1.10;99.90;;;;;;5064794;28;20222;-73
2021/01/14 05:29:15;;;;;;;3.90;3.70;;;1.10;99.90;;;;;;5063995;28;20233;-73
2021/01/14 05:31:42;;;;;;;3.75;3.63;;;1.10;99.90;;;;;;5058983;28;20305;-73
2021/01/14 05:34:08;;;;;;;3.70;3.50;;;1.20;99.90;;;;;;5064379;28;20282;-72
2021/01/14 05:36:59;;;;;;;4.20;4.00;;;1.20;99.90;;;;;;5067036;28;20230;-72
2021/01/14 05:39:25;;;;;;;3.50;3.30;;;1.20;99.90;;;;;;5067798;28;20937;-72
2021/01/14 05:41:52;;;;;;;3.75;3.55;;;1.20;99.90;;;;;;5067440;28;20230;-72
2021/01/14 05:44:34;;;;;;;4.10;3.90;;;1.20;99.90;;;;;;5068093;28;20222;-73
2021/01/14 05:47:18;;;;;;;4.20;4.00;;;1.20;99.90;;;;;;5063194;28;20225;-72
2021/01/14 05:49:54;;;;;;;3.80;3.60;;;1.20;99.90;;;;;;5070932;28;20214;-72
2021/01/14 05:52:24;;;;;;;4.30;3.92;;;1.10;99.90;;;;;;5067300;28;20283;-72
2021/01/14 05:55:04;;;;;;;4.60;4.32;;;1.10;99.90;;;;;;5071610;28;20240;-73
2021/01/14 05:57:32;;;;;;;3.95;3.65;;;1.10;99.90;;;;;;5069259;28;20691;-72
2021/01/14 06:00:01;;;;;;;4.50;4.30;;;1.20;99.90;;;;;;5072014;28;20259;-72
2021/01/14 06:02:29;;;;;;;4.03;3.83;;;1.20;99.90;;;;;;5067574;28;20218;-72
2021/01/14 06:04:55;;;;;;;4.20;3.90;;;1.20;99.90;;;;;;5071981;28;20305;-72
2021/01/14 06:07:23;;;;;;;4.35;4.15;;;1.20;99.90;;;;;;5061596;28;20225;-72
2021/01/14 06:09:50;;;;;;;4.05;3.85;;;1.20;99.90;;;;;;5060440;28;20222;-73
2021/01/14 06:12:17;;;;;;;4.20;4.00;;;1.20;99.90;;;;;;5063048;28;20221;-72
2021/01/14 06:14:44;;;;;;;3.80;3.60;;;1.20;99.90;;;;;;5076434;28;20239;-72
2021/01/14 06:17:13;;;;;;;4.38;4.18;;;1.20;99.90;;;;;;5063660;28;20276;-72
2021/01/14 06:19:40;;;;;;;3.35;3.22;;;1.20;99.90;;;;;;5063250;28;20244;-72
2021/01/14 06:22:07;;;;;;;3.58;3.38;;;1.30;99.90;;;;;;5063872;28;20229;-73
2021/01/14 06:24:36;;;;;;;3.58;3.38;;;1.30;99.90;;;;;;5056915;28;20225;-72
2021/01/14 06:27:10;;;;;;;3.75;3.55;;;1.30;99.90;;;;;;5054250;28;20681;-72
2021/01/14 06:29:38;;;;;;;3.58;3.42;;;1.30;99.90;;;;;;5054825;28;20218;-72
2021/01/14 06:32:09;;;;;;;3.72;3.60;;;1.30;99.90;;;;;;5044268;28;20223;-72
2021/01/14 06:34:39;;;;;;;4.07;3.88;;;1.30;99.90;;;;;;5051980;28;20227;-72
2021/01/14 06:37:11;;;;;;;3.53;3.42;;;1.30;99.90;;;;;;5067737;28;20229;-72
2021/01/14 06:39:41;;;;;;;3.47;3.28;;;1.30;99.90;;;;;;5060630;28;20214;-72
2021/01/14 06:42:19;;;;;;;3.60;3.45;;;1.30;99.90;;;;;;5057294;28;20226;-72
2021/01/14 06:44:54;;;;;;;3.65;3.45;;;1.30;99.90;;;;;;5049535;28;20226;-72
2021/01/14 06:47:37;;;;;;;3.80;3.60;;;1.30;99.90;;;;;;5040699;28;20225;-72
2021/01/14 06:50:20;;;;;;;4.35;4.15;;;1.30;99.90;;;;;;5037589;28;21437;-72
2021/01/14 06:52:51;;;;;;;3.80;3.60;;;1.40;99.90;;;;;;5053436;28;20219;-73
2021/01/14 06:55:19;;;;;;;4.22;4.03;;;1.40;99.90;;;;;;5059620;28;20222;-72
2021/01/14 06:58:09;;;;;;;3.97;3.78;;;1.40;99.90;;;;;;5046172;28;20229;-73
2021/01/14 07:00:39;;;;;;;3.97;3.78;;;1.40;99.90;;;;;;5053025;28;20533;-72
2021/01/14 07:03:20;;;;;;;3.97;3.78;;;1.50;99.90;;;;;;5055352;28;21027;-72
2021/01/14 07:06:07;;;;;;;4.00;3.80;;;1.50;99.90;;;;;;5059547;28;20260;-72
2021/01/14 07:08:38;;;;;;;4.22;4.03;;;1.50;99.90;;;;;;5077641;28;20646;-72
2021/01/14 07:11:10;;;;;;;4.75;4.35;;;1.50;99.90;;;;;;5061597;28;20741;-73
2021/01/14 07:13:39;;;;;;;4.53;4.22;;;1.60;99.90;;;;;;5053638;28;20218;-72
2021/01/14 07:16:06;;;;;;;4.05;3.80;;;1.60;99.90;;;;;;5052271;28;20311;-72
2021/01/14 07:18:34;;;;;;;4.40;4.15;;;1.60;99.90;;;;;;5034471;28;20738;-72
2021/01/14 07:21:08;;;;;;;5.32;5.00;;;1.50;99.90;;;;;;5038365;28;20253;-73
2021/01/14 07:23:43;;;;;;;5.47;5.10;;;1.50;99.90;;;;;;5040883;28;20240;-72
2021/01/14 07:26:11;;;;;;;4.93;4.50;;;1.50;99.90;;;;;;5048294;28;20221;-73
2021/01/14 07:28:37;;;;;;;5.55;5.25;;;1.50;99.90;;;;;;5040774;28;20215;-73
2021/01/14 07:31:21;;;;;;;6.22;5.72;;;1.50;99.90;;;;;;5043316;28;20595;-72
2021/01/14 07:33:48;;;;;;;5.80;5.32;;;1.60;99.90;;;;;;5049564;28;20222;-72
2021/01/14 07:36:21;;;;;;;6.65;6.15;;;1.60;99.90;;;;;;5056295;28;20217;-73
2021/01/14 07:38:49;;;;;;;6.75;6.10;;;1.60;99.90;;;;;;5059629;28;20226;-73
2021/01/14 07:41:15;;;;;;;5.68;5.28;;;1.70;99.90;;;;;;5062340;28;20573;-73
2021/01/14 07:43:45;;;;;;;5.88;5.47;;;1.70;99.90;;;;;;5056343;28;20234;-72
2021/01/14 07:46:21;;;;;;;5.78;5.38;;;1.70;99.90;;;;;;5060517;28;20246;-73
2021/01/14 07:48:48;;;;;;;5.20;4.80;;;1.70;99.90;;;;;;5075005;28;20226;-72
2021/01/14 07:51:15;;;;;;;5.07;4.68;;;1.80;99.90;;;;;;5070486;28;20230;-72
2021/01/14 07:53:45;;;;;;;5.13;4.78;;;1.90;99.90;;;;;;5056201;28;20229;-72
2021/01/14 07:56:25;;;;;;;5.10;4.80;;;2.10;99.90;;;;;;5050967;28;20312;-71
2021/01/14 07:58:55;;;;;;;5.18;4.88;;;2.30;99.90;;;;;;5053835;28;20225;-71
2021/01/14 08:01:21;;;;;;;5.00;4.70;;;2.30;99.90;;;;;;5065406;28;20508;-72
2021/01/14 08:03:48;;;;;;;5.30;5.00;;;2.30;99.90;;;;;;5056045;28;20225;-71
2021/01/14 08:06:22;;;;;;;6.45;6.05;;;2.30;99.90;;;;;;5054544;28;20232;-72
2021/01/14 08:09:01;;;;;;;8.30;7.68;;;2.40;99.90;;;;;;5056578;28;20222;-72
2021/01/14 08:11:29;;;;;;;7.57;6.88;;;2.40;99.90;;;;;;5053257;28;20750;-72
2021/01/14 08:14:03;;;;;;;7.60;6.90;;;2.50;99.90;;;;;;5053640;28;20213;-71
2021/01/14 08:16:32;;;;;;;6.78;6.18;;;2.60;99.90;;;;;;5053217;28;20459;-71
2021/01/14 08:19:18;;;;;;;5.93;5.43;;;2.60;99.90;;;;;;5059223;28;20262;-71
2021/01/14 08:21:46;;;;;;;6.45;5.95;;;2.70;99.90;;;;;;5055050;28;20222;-72
2021/01/14 08:24:33;;;;;;;6.47;5.97;;;2.70;99.90;;;;;;5060859;28;20229;-71
2021/01/14 08:27:02;;;;;;;5.35;5.05;;;2.80;99.90;;;;;;5055667;28;20225;-72
2021/01/14 08:29:33;;;;;;;5.68;5.18;;;2.80;99.90;;;;;;5056543;28;21707;-71
2021/01/14 08:32:00;;;;;;;4.68;4.28;;;2.90;99.90;;;;;;5059595;28;20384;-71
2021/01/14 08:34:27;;;;;;;4.50;4.20;;;2.90;99.90;;;;;;5060522;28;20612;-72
2021/01/14 08:36:55;;;;;;;4.80;4.50;;;3.10;99.90;;;;;;5060505;28;20218;-72
2021/01/14 08:39:24;;;;;;;5.03;4.72;;;3.10;99.90;;;;;;5051107;28;20258;-72
2021/01/14 08:41:51;;;;;;;4.40;4.10;;;3.30;99.90;;;;;;5057372;28;20598;-73
2021/01/14 08:44:23;;;;;;;4.40;4.10;;;3.40;99.90;;;;;;5050817;28;20819;-73
2021/01/14 08:46:52;;;;;;;4.50;4.20;;;3.50;99.90;;;;;;5050166;28;20222;-73
2021/01/14 08:49:19;;;;;;;5.07;4.78;;;3.70;99.90;;;;;;5049569;28;20272;-72
2021/01/14 08:51:46;;;;;;;4.90;4.60;;;3.90;99.90;;;;;;5064428;28;20905;-73
2021/01/14 08:54:13;;;;;;;5.13;4.82;;;3.80;99.90;;;;;;5061739;28;20307;-72
2021/01/14 08:56:40;;;;;;;5.60;5.10;;;3.70;99.90;;;;;;5056995;28;20271;-72
2021/01/14 08:59:15;;;;;;;4.70;4.30;;;3.70;99.90;;;;;;5049957;28;20604;-72
2021/01/14 09:01:42;;;;;;;4.45;4.18;;;3.70;99.90;;;;;;5030490;28;20218;-72
2021/01/14 09:04:10;;;;;;;3.97;3.78;;;3.70;99.90;;;;;;5041303;28;20235;-73
2021/01/14 09:06:38;;;;;;;4.97;4.65;;;3.80;99.90;;;;;;5031830;28;20218;-74
2021/01/14 09:09:06;;;;;;;5.35;4.95;;;3.80;99.90;;;;;;5032719;28;20636;-74
2021/01/14 09:11:34;;;;;;;6.07;5.68;;;3.60;99.90;;;;;;5044304;28;20237;-75
2021/01/14 09:14:03;;;;;;;6.80;6.20;;;3.50;99.90;;;;;;5062790;28;20355;-76
2021/01/14 09:16:30;;;;;;;6.13;5.70;;;3.50;99.90;;;;;;5058145;28;20956;-74
2021/01/14 09:18:56;;;;;;;6.15;5.55;;;3.60;99.90;;;;;;5050491;28;20225;-75
2021/01/14 09:21:23;;;;;;;6.40;5.78;;;3.60;99.90;;;;;;5045766;28;20223;-76
2021/01/14 09:23:50;;;;;;;7.15;6.55;;;3.70;99.90;;;;;;5057384;28;20423;-75
2021/01/14 09:26:20;;;;;;;8.80;8.00;;;3.80;99.90;;;;;;5042352;28;20598;-76
2021/01/14 09:28:51;;;;;;;8.77;7.97;;;3.70;99.90;;;;;;5043044;28;20222;-74
2021/01/14 09:31:19;;;;;;;9.15;8.27;;;3.60;99.90;;;;;;5031159;28;20314;-74
2021/01/14 09:33:47;;;;;;;10.30;9.25;;;3.50;99.90;;;;;;5039197;28;20226;-75
2021/01/14 09:36:15;;;;;;;9.05;8.15;;;3.40;99.90;;;;;;5037375;28;20229;-75
2021/01/14 09:38:49;;;;;;;7.72;7.13;;;3.30;99.90;;;;;;5034840;28;20410;-75
2021/01/14 09:44:00;;;;;;;7.68;7.07;;;3.40;99.90;;;;;;5051176;28;20313;-75
2021/01/14 09:46:29;;;;;;;7.32;6.72;;;3.50;99.90;;;;;;5066772;28;20218;-74
2021/01/14 09:48:58;;;;;;;7.22;6.63;;;3.60;99.90;;;;;;5056340;28;20217;-74
2021/01/14 09:51:25;;;;;;;6.70;6.20;;;3.60;99.90;;;;;;5056380;28;20232;-76
2021/01/14 09:53:52;;;;;;;7.90;7.30;;;3.70;99.90;;;;;;5058152;28;20340;-74
2021/01/14 09:56:24;;;;;;;8.35;7.50;;;3.80;99.90;;;;;;5058612;28;20572;-75
2021/01/14 09:58:56;;;;;;;7.35;6.75;;;3.80;99.90;;;;;;5051199;28;20223;-75
2021/01/14 10:01:29;;;;;;;8.00;7.25;;;3.70;99.90;;;;;;5037206;28;20227;-76
2021/01/14 10:04:03;;;;;;;8.75;7.95;;;3.70;99.90;;;;;;5054551;28;20237;-73
2021/01/14 10:06:35;;;;;;;7.78;7.07;;;3.80;99.90;;;;;;5060277;28;20537;-74
2021/01/14 10:09:03;;;;;;;7.53;6.88;;;3.90;99.90;;;;;;5044551;28;20231;-73
2021/01/14 10:11:30;;;;;;;7.60;7.00;;;3.90;99.90;;;;;;5056319;28;20291;-73
2021/01/14 10:13:56;;;;;;;8.13;7.43;;;4.00;99.90;;;;;;5048644;28;20747;-72
2021/01/14 10:16:23;;;;;;;8.05;7.35;;;3.90;99.90;;;;;;5049113;28;20662;-76
2021/01/14 10:18:52;;;;;;;7.63;6.93;;;4.00;99.90;;;;;;5051899;28;20756;-75
2021/01/14 10:21:24;;;;;;;8.40;7.70;;;4.10;99.90;;;;;;5056220;28;20230;-75
2021/01/14 10:23:51;;;;;;;8.70;8.00;;;4.20;99.90;;;;;;5048787;28;20311;-75
2021/01/14 10:26:26;;;;;;;10.30;9.27;;;4.20;99.90;;;;;;5040106;28;20610;-75
2021/01/14 10:28:52;;;;;;;7.88;7.07;;;4.10;99.90;;;;;;5036747;28;20297;-75
2021/01/14 10:31:35;;;;;;;6.80;6.30;;;4.00;99.90;;;;;;5035153;28;20230;-74
2021/01/14 10:34:04;;;;;;;7.28;6.68;;;4.00;99.90;;;;;;5037115;28;20249;-74
2021/01/14 10:36:47;;;;;;;6.40;5.80;;;4.00;99.90;;;;;;5043420;28;20211;-74
2021/01/14 10:39:14;;;;;;;7.38;6.82;;;4.10;99.90;;;;;;5054859;28;20249;-73
2021/01/14 10:41:41;;;;;;;6.30;5.70;;;4.10;99.90;;;;;;5054611;28;20278;-74
2021/01/14 10:44:08;;;;;;;6.95;6.35;;;4.20;99.90;;;;;;5048496;28;20276;-74
2021/01/14 10:46:35;;;;;;;5.80;5.28;;;4.20;99.90;;;;;;5060339;28;20245;-75
2021/01/14 10:49:10;;;;;;;7.03;6.35;;;4.30;99.90;;;;;;5056690;28;20222;-75
2021/01/14 10:51:37;;;;;;;8.02;7.25;;;4.30;99.90;;;;;;5045372;28;20225;-73
2021/01/14 10:54:04;;;;;;;8.43;7.63;;;4.30;99.90;;;;;;5058104;28;20505;-73
2021/01/14 10:56:31;;;;;;;7.80;7.20;;;4.30;99.90;;;;;;5048091;28;20226;-73
2021/01/14 10:58:58;;;;;;;7.93;7.13;;;4.30;99.90;;;;;;5042104;28;20264;-73
2021/01/14 11:01:25;;;;;;;8.57;7.85;;;4.20;99.90;;;;;;5051223;28;20229;-75
2021/01/14 11:03:52;;;;;;;8.57;7.78;;;4.20;99.90;;;;;;5055314;28;20275;-75
2021/01/14 11:06:30;;;;;;;8.27;7.57;;;4.10;99.90;;;;;;5053284;28;20351;-76
2021/01/14 11:09:00;;;;;;;7.60;6.93;;;4.20;99.90;;;;;;5054951;28;20609;-74
2021/01/14 11:11:27;;;;;;;6.95;6.35;;;4.30;99.90;;;;;;5050827;28;20242;-73
2021/01/14 11:13:54;;;;;;;6.13;5.57;;;4.40;99.90;;;;;;5051780;28;20222;-75
2021/01/14 11:16:23;;;;;;;6.95;6.35;;;4.50;99.90;;;;;;5057081;28;20221;-74
2021/01/14 11:18:51;;;;;;;7.10;6.50;;;4.60;99.90;;;;;;5056731;28;20214;-74
2021/01/14 11:21:28;;;;;;;8.70;7.75;;;4.60;99.90;;;;;;5052729;28;20218;-74
2021/01/14 11:23:56;;;;;;;8.00;7.30;;;4.60;99.90;;;;;;5056941;28;20320;-75
2021/01/14 11:26:22;;;;;;;8.02;7.32;;;4.30;99.90;;;;;;5057749;28;20488;-73
2021/01/14 11:28:49;;;;;;;8.00;7.32;;;4.20;99.90;;;;;;5056173;28;20734;-77
2021/01/14 11:31:17;;;;;;;8.93;8.23;;;4.10;99.90;;;;;;5070167;28;20536;-76
2021/01/14 11:33:44;;;;;;;8.60;7.90;;;4.10;99.90;;;;;;5058417;28;20217;-75
2021/01/14 11:36:12;;;;;;;10.07;9.18;;;4.10;99.90;;;;;;5054825;28;20858;-75
2021/01/14 11:38:39;;;;;;;7.93;7.13;;;4.10;99.90;;;;;;5064940;28;20221;-76
2021/01/14 11:41:06;;;;;;;9.00;7.97;;;4.10;99.90;;;;;;5089458;28;20229;-78
2021/01/14 11:43:33;;;;;;;9.13;8.43;;;4.20;99.90;;;;;;5070400;28;21704;-75
2021/01/14 11:46:00;;;;;;;10.52;9.52;;;4.30;99.90;;;;;;5062324;28;20235;-75
2021/01/14 11:48:27;;;;;;;8.68;7.97;;;4.20;99.90;;;;;;5050156;28;20770;-72
2021/01/14 11:50:54;;;;;;;12.40;11.20;;;4.30;99.90;;;;;;5046664;28;20358;-73
2021/01/14 11:53:20;;;;;;;9.32;8.52;;;4.20;99.90;;;;;;5037521;28;20230;-72
2021/01/14 11:55:47;;;;;;;8.80;7.90;;;4.10;99.90;;;;;;5041133;28;20222;-72
2021/01/14 11:58:15;;;;;;;9.27;8.35;;;4.20;99.90;;;;;;5058663;28;20217;-72
2021/01/14 12:00:41;;;;;;;8.73;8.02;;;4.30;99.90;;;;;;5059735;28;20307;-73
2021/01/14 12:03:08;;;;;;;9.73;8.80;;;4.40;99.90;;;;;;5063430;28;20215;-72
2021/01/14 12:05:35;;;;;;;7.97;7.18;;;4.50;99.90;;;;;;5059481;28;20242;-76
2021/01/14 12:08:01;;;;;;;8.10;7.40;;;4.60;99.90;;;;;;5060689;28;20217;-76
2021/01/14 12:10:28;;;;;;;9.18;8.30;;;4.70;99.90;;;;;;5058506;28;20634;-77
2021/01/14 12:12:54;;;;;;;10.98;9.75;;;4.80;99.90;;;;;;5054769;28;20772;-74
2021/01/14 12:15:22;;;;;;;10.40;9.40;;;4.80;99.90;;;;;;5049690;28;20229;-75
2021/01/14 12:17:49;;;;;;;9.07;8.27;;;4.80;99.90;;;;;;5063037;28;20218;-76
2021/01/14 12:20:16;;;;;;;8.85;8.05;;;4.90;99.90;;;;;;5063869;28;20607;-76
2021/01/14 12:22:43;;;;;;;11.68;10.50;;;4.90;99.90;;;;;;5080607;28;20251;-76
2021/01/14 12:25:12;;;;;;;10.55;9.48;;;4.90;99.90;;;;;;5058585;28;20322;-76
2021/01/14 12:27:38;;;;;;;8.40;7.70;;;5.00;99.90;;;;;;5053126;28;20616;-75
2021/01/14 12:30:06;;;;;;;7.35;6.53;;;5.10;99.90;;;;;;5061586;28;20226;-76
2021/01/14 12:32:34;;;;;;;11.02;9.93;;;5.20;99.90;;;;;;5059212;28;20229;-76
2021/01/14 12:35:00;;;;;;;9.82;8.93;;;5.20;99.90;;;;;;5059011;28;20229;-76
2021/01/14 12:37:32;;;;;;;11.00;9.85;;;5.10;99.90;;;;;;5052996;28;20450;-73
2021/01/14 12:39:58;;;;;;;12.70;9.38;;;5.10;99.90;;;;;;5053187;28;20252;-72
2021/01/14 12:42:25;;;;;;;8.48;7.68;;;4.90;99.90;;;;;;5069918;28;20777;-73
2021/01/14 12:44:51;;;;;;;9.75;8.48;;;4.80;99.90;;;;;;5060513;28;20464;-73
2021/01/14 12:47:20;;;;;;;7.72;7.00;;;4.90;99.90;;;;;;5054602;28;20283;-73
2021/01/14 12:49:48;;;;;;;7.50;6.80;;;4.90;99.90;;;;;;5063578;28;20467;-73
2021/01/14 12:52:15;;;;;;;7.88;7.18;;;5.00;99.90;;;;;;5061494;28;20287;-74
2021/01/14 12:54:42;;;;;;;7.40;6.80;;;5.00;99.90;;;;;;5054992;28;20214;-75
2021/01/14 12:57:08;;;;;;;6.57;5.97;;;5.10;99.90;;;;;;5053898;28;20604;-75
2021/01/14 12:59:35;;;;;;;7.63;6.85;;;5.10;99.90;;;;;;5060136;28;20218;-75
2021/01/14 13:02:04;;;;;;;10.10;8.30;;;5.20;99.90;;;;;;5058680;28;20897;-76
2021/01/14 13:04:30;;;;;;;11.40;8.23;;;5.40;99.90;;;;;;5064248;28;20529;-75
2021/01/14 13:06:58;;;;;;;8.38;6.20;;;5.60;99.90;;;;;;5051005;28;20218;-76
2021/01/14 13:09:25;;;;;;;7.80;6.75;;;5.90;99.90;;;;;;5060094;28;20512;-77